AirNav   Air Wisconsin Up To $57,000 Bonus
 
 675 users online  

O88 Rio Vista Municipal Airport
Rio Vista, California, USA

GOING TO RIO VISTA?


FAA INFORMATION EFFECTIVE 12 SEPTEMBER 2019

Location

FAA Identifier: O88
Lat/Long: 38-11-36.2000N 121-42-13.1000W
38-11.603333N 121-42.218333W
38.1933889,-121.7036389
(estimated)
Elevation: 22.6 ft. / 7 m (estimated)
Variation: 14E (2010)
From city: 3 miles NW of RIO VISTA, CA
Time zone: UTC -7 (UTC -8 during Standard Time)
Zip code: 94571

Airport Operations

Airport use: Open to the public
Activation date: 05/1994
Control tower: no
ARTCC: OAKLAND CENTER
FSS: RANCHO MURIETA FLIGHT SERVICE STATION
NOTAMs facility: RIU (NOTAM-D service available)
Attendance: UNATNDD
Wind indicator: lighted
Segmented circle: yes
Lights: ACTVT REIL RWY 25; PAPI RWY 07,15, 25, & 33; MIRL RWY 07/25 & 15/33; PERIMETER H1 - CTAF.
Beacon: white-green (lighted land airport)
Operates sunset to sunrise.

Airport Communications

CTAF/UNICOM: 122.725
WX AWOS-AV: 127.075 (707-374-5396)
TRAVIS APPROACH: 119.9
TRAVIS DEPARTURE: 119.9
WX ASOS at VCB (16 nm NW): 134.75 (707-448-1594)

Nearby radio navigation aids

VOR radial/distance  VOR name  Freq  Var
SACr188/16.6SACRAMENTO VORTAC115.2017E
CCRr044/18.4CONCORD VOR/DME117.0017E
SGDr071/31.6SCAGGS ISLAND VORTAC112.1017E
MCCr189/31.7MC CLELLAN VOR/DME109.2017E
LINr265/33.8LINDEN VOR/DME114.8017E
OAKr024/37.3OAKLAND VOR/DME116.8017E

 
NDB name  Hdg/Dist  Freq  Var  ID
TRACY323/32.520315ETCY - -.-. -.--

Airport Services

Fuel available: 100LL
FAST PAY FUEL SYSTEM AVBL 24 HRS.
Parking: tiedowns

Runway Information

Runway 7/25

Dimensions: 4199 x 75 ft. / 1280 x 23 m
Surface: asphalt, in good condition
Weight bearing capacity: 
Single wheel: 30.0
Runway edge lights: medium intensity
RUNWAY 7  RUNWAY 25
Latitude: 38-11.606865N38-11.658582N
Longitude: 121-42.573408W121-41.699158W
Elevation: 21.3 ft.21.6 ft.
Traffic pattern: leftright
Runway heading: 072 magnetic, 086 true252 magnetic, 266 true
Markings: nonprecision, in good conditionnonprecision, in good condition
Visual slope indicator: 2-light PAPI on left (4.00 degrees glide path)2-light PAPI on left (4.00 degrees glide path)
Runway end identifier lights: yes
Touchdown point: yes, no lightsyes, no lights

Runway 15/33

Dimensions: 2199 x 60 ft. / 670 x 18 m
Surface: asphalt, in good condition
Weight bearing capacity: 
Single wheel: 12.5
Runway edge lights: medium intensity
RUNWAY 15  RUNWAY 33
Latitude: 38-11.716400N38-11.375910N
Longitude: 121-42.452610W121-42.295648W
Elevation: 21.6 ft.21.5 ft.
Traffic pattern: leftright
Runway heading: 146 magnetic, 160 true326 magnetic, 340 true
Markings: nonprecision, in good conditionnonprecision, in good condition
Visual slope indicator: 2-light PAPI on left (4.00 degrees glide path)2-light PAPI on left (4.00 degrees glide path)
Touchdown point: yes, no lightsyes, no lights
Obstructions: 25 ft. pole, 1365 ft. from runway, 46:1 slope to clearnone

Helipad H1

Dimensions: 180 x 180 ft. / 55 x 55 m
Surface: concrete
Runway edge lights: PERI
Traffic pattern: leftleft

Airport Ownership and Management from official FAA records

Ownership: Publicly-owned
Owner: CITY OF RIO VISTA
ONE MAIN STREET
RIO VISTA, CA 94571
Phone 707-374-6451
Manager: ROBERT HICKEY
ONE MAIN STREET, P.O. BOX 94571
RIO VISTA, CA 94571
Phone 707-374-6451
DIR PUBLIC WORKS AND PLANNING

Airport Operational Statistics

Aircraft based on the field: 37
Single engine airplanes: 33
Multi engine airplanes: 1
Jet airplanes: 1
Helicopters: 2
    
Aircraft operations: avg 96/day *
50% transient general aviation
50% local general aviation
* for 12-month period ending 31 December 2018

Additional Remarks

RY 25 CALM WIND RY.
NOISE SENSITIVE AREA N OF RY 33. DO NOT OVERFLY RANCH & CORRALS OFF RY 33. ALL RYS CLIMB TO 700 FT BEFORE TURNS.
HELIPAD: NO AUTOROTATIONS HOVERING AUTO'S OR RUNNING LDGS TO PAVEMENT.
HEL TFC TO HELIPAD REMAIN SOUTH OF ARPT 500 FT.
WHEN WIND FAVORS RWY 15/33 HELS MAY USE APRON AREA WEST OF RWY 15/33; REMAIN WEST OF ARPT 500 FT.
FOR CD CTC OAKLAND ARTCC AT 510-745-3380.

Instrument Procedures

NOTE: All procedures below are presented as PDF files. If you need a reader for these files, you should download the free Adobe Reader.

NOT FOR NAVIGATION. Please procure official charts for flight.
FAA instrument procedures published for use from 12 September 2019 at 0901Z to 10 October 2019 at 0900Z.

 
IAPs - Instrument Approach Procedures
RNAV (GPS) RWY 25   download (206KB)
VOR/DME-A   download (179KB)
NOTE: Special Take-Off Minimums/Departure Procedures apply   download (128KB)

Other nearby airports with instrument procedures:

KSUU - Travis Air Force Base (11 nm W)
KVCB - Nut Tree Airport (16 nm NW)
1O3 - Lodi Airport (20 nm E)
KEDU - University Airport (21 nm N)
KCCR - Buchanan Field Airport (21 nm SW)
 
Loc | Ops | Rwys | IFR | FBO | Links
Com | Nav | Svcs | Stats | Notes

Sonoma Jet Center
 
Area around O88 (Rio Vista Municipal Airport)
 
Road maps at: MapQuest Bing Google
 
Aerial photo
WARNING: Photo may not be current or correct
Aerial photo of O88 (Rio Vista Municipal Airport)
Photo by James M. Malone III, MD
Photo taken 03-Apr-2011
looking west.

Do you have a better or more recent aerial photo of Rio Vista Municipal Airport that you would like to share? If so, please send us your photo.

 
Sectional chart

 
Airport distance calculator
Flying to Rio Vista Municipal Airport? Find the distance to fly.

From to O88

Sunrise and sunset
Times for 18-Sep-2019
 Local
(UTC-7)
 Zulu
(UTC)
Morning civil twilight06:2613:26
Sunrise06:5213:52
Sunset19:1002:10
Evening civil twilight19:3602:36

Current date and time
Zulu (UTC)  19-Sep-2019 03:28:58
Local (UTC-7)  18-Sep-2019 20:28:58
 
METAR
KSUU 
11nm NW 
190258Z AUTO 23013KT 10SM CLR 19/10 A2989 RMK AO2 SLP128 T01920099 55001 $
KVCB 
16nm NW 
190253Z AUTO 23006KT 10SM CLR 21/12 A2990 RMK AO2 SLP123 T02060117 53000
KCCR 
20nm SW 
190253Z 24005KT 10SM CLR 20/11 A2992 RMK AO2 SLP117 T02000106 53001
KEDU 
21nm N 
190315Z AUTO 25008KT 10SM FEW075 21/10 A2988 RMK AO1
KSAC 
21nm NE 
190253Z 21006KT 10SM FEW080 21/11 A2988 RMK AO2 SLP117 T02060106 55000
TAF
KSUU 
11nm NW 
182045Z 1820/2001 23012G20KT 9999 SCT040 BKN080 QNH2988INS BECMG 1822/1823 23015G25KT 9999 FEW090 SCT150 QNH2988INS BECMG 1903/1904 23010G15KT 9999 FEW200 QNH2990INS BECMG 1917/1918 34009KT 9999 SKC QNH2993INS TX28/1823Z TN16/1914Z
NOTAMs
Click for the latest NOTAMs
NOTAMs are issued by the DoD/FAA and will open in a separate window not controlled by AirNav.

 

 
 

FBO, Fuel Providers, and Aircraft Ground Support

  
 Business Name 
 
 Contact 
 
 Services / Description 
 
Fuel Prices
 
Comments
  
Rio Vista Municipal Airport 707-374-6451
no information available

If you are affiliated with Rio Vista Municipal Airport and would like to show here your services, contact info, web link, logo, and more, click here
100LL
SS $4.39 
 Updated 29-Aug-2019
 
   1 read write
SS=Self service
Update Fuel Prices
 

Would you like to see your business listed on this page?

 If your business provides an interesting product or service to pilots, flight crews, aircraft, or users of the Rio Vista Municipal Airport, you should consider listing it here.  To start the listing process, click on the button below
 
Add a business
 

Other Pages about Rio Vista Municipal Airport

ci.rio-vista.ca.us/airport
 
Update a link
 
Copyright © AirNav, LLC. All rights reserved. Privacy Policy  Contact